createdAt,value
2018-10-12T00:00:12.277Z,97.20
2018-10-12T00:02:42.383Z,97.50
2018-10-12T00:05:12.543Z,97.60
2018-10-12T00:07:41.961Z,97.40
2018-10-12T00:10:10.934Z,97.80
2018-10-12T00:12:39.545Z,97.90
2018-10-12T00:15:08.333Z,98.10
2018-10-12T00:17:37.010Z,98.40
2018-10-12T00:20:06.625Z,98.40
2018-10-12T00:22:35.205Z,98.70
2018-10-12T00:25:03.685Z,98.80
2018-10-12T00:27:32.072Z,98.80
2018-10-12T00:30:00.972Z,99.50
2018-10-12T00:32:29.681Z,99.10
2018-10-12T00:34:58.304Z,99.50
2018-10-12T00:37:26.744Z,99.60
2018-10-12T00:39:55.246Z,99.50
2018-10-12T00:42:23.714Z,99.60
2018-10-12T00:44:52.098Z,99.90
2018-10-12T00:47:20.682Z,99.90
2018-10-12T00:49:49.258Z,99.90
2018-10-12T00:52:17.655Z,99.90
2018-10-12T00:54:46.097Z,99.90
2018-10-12T00:57:14.542Z,99.90
2018-10-12T00:59:43.610Z,99.90
2018-10-12T01:02:12.276Z,99.90
2018-10-12T01:04:40.783Z,99.90
2018-10-12T01:07:09.470Z,99.90
2018-10-12T01:09:38.102Z,99.90
2018-10-12T01:12:36.817Z,99.90
2018-10-12T01:15:05.937Z,99.90
2018-10-12T01:17:35.048Z,99.90
2018-10-12T01:20:04.166Z,99.90
2018-10-12T01:22:32.817Z,99.90
2018-10-12T01:25:02.310Z,99.90
2018-10-12T01:27:31.525Z,99.90
2018-10-12T01:30:00.065Z,99.90
2018-10-12T01:32:34.086Z,99.80
2018-10-12T01:35:02.951Z,99.90
2018-10-12T01:37:31.328Z,99.80
2018-10-12T01:40:00.083Z,99.50
2018-10-12T01:42:28.934Z,99.40
2018-10-12T01:44:57.529Z,99.60
2018-10-12T01:47:25.965Z,99.20
2018-10-12T01:49:54.664Z,99.10
2018-10-12T01:52:23.308Z,99.50
2018-10-12T01:54:51.688Z,98.90
2018-10-12T01:57:20.168Z,99.30
2018-10-12T01:59:48.866Z,99.10
2018-10-12T02:02:17.540Z,99.00
2018-10-12T02:04:46.233Z,98.70
2018-10-12T02:07:14.856Z,99.00
2018-10-12T02:09:43.297Z,98.80
2018-10-12T02:12:11.729Z,98.50
2018-10-12T02:14:40.134Z,98.70
2018-10-12T02:17:08.593Z,98.60
2018-10-12T02:19:37.430Z,98.40
2018-10-12T02:22:06.152Z,98.50
2018-10-12T02:24:34.564Z,98.30
2018-10-12T02:27:03.001Z,98.20
2018-10-12T02:29:31.413Z,98.20
2018-10-12T02:31:59.774Z,98.20
2018-10-12T02:34:28.256Z,98.30
2018-10-12T02:36:57.598Z,98.10
2018-10-12T02:39:26.056Z,97.80
2018-10-12T02:41:54.750Z,97.80
2018-10-12T02:44:23.214Z,97.90
2018-10-12T02:46:51.584Z,97.80
2018-10-12T02:49:20.025Z,97.70
2018-10-12T02:51:48.966Z,98.00
2018-10-12T02:54:17.522Z,97.90
2018-10-12T02:56:45.980Z,97.70
2018-10-12T02:59:14.390Z,97.90
2018-10-12T03:01:43.051Z,97.90
2018-10-12T03:04:11.498Z,98.00
2018-10-12T03:06:40.012Z,97.90
2018-10-12T03:09:10.084Z,98.20
2018-10-12T03:11:38.503Z,98.30
2018-10-12T03:14:07.218Z,98.00
2018-10-12T03:16:35.688Z,98.00
2018-10-12T03:19:04.871Z,98.30
2018-10-12T03:21:33.305Z,98.20
2018-10-12T03:24:02.169Z,98.20
2018-10-12T03:26:30.557Z,98.10
2018-10-12T03:28:59.169Z,98.00
2018-10-12T03:31:27.681Z,98.00
2018-10-12T03:33:56.200Z,97.70
2018-10-12T03:36:25.288Z,97.90
2018-10-12T03:38:54.029Z,97.80
2018-10-12T03:41:23.061Z,97.80
2018-10-12T03:43:51.963Z,97.70
2018-10-12T03:46:20.392Z,97.70
2018-10-12T03:48:48.938Z,97.50
2018-10-12T03:51:17.433Z,97.50
2018-10-12T03:53:45.915Z,97.40
2018-10-12T03:56:14.434Z,97.60
2018-10-12T03:58:43.056Z,97.50
2018-10-12T04:01:11.537Z,97.70
2018-10-12T04:03:40.049Z,97.80
2018-10-12T04:06:08.553Z,97.70
2018-10-12T04:08:37.422Z,97.80
2018-10-12T04:11:06.173Z,98.00
2018-10-12T04:13:35.001Z,97.80
2018-10-12T04:16:03.683Z,98.00
2018-10-12T04:18:32.174Z,97.80
2018-10-12T04:21:00.603Z,97.60
2018-10-12T04:23:29.043Z,97.70
2018-10-12T04:25:57.702Z,98.00
2018-10-12T04:28:26.154Z,98.10
2018-10-12T04:30:54.750Z,98.00
2018-10-12T04:33:23.424Z,98.00
2018-10-12T04:35:51.878Z,97.70
2018-10-12T04:38:20.331Z,97.70
2018-10-12T04:41:03.200Z,97.60
2018-10-12T04:43:32.614Z,97.90
2018-10-12T04:46:02.536Z,97.70
2018-10-12T04:48:31.248Z,97.90
2018-10-12T04:51:00.325Z,97.90
2018-10-12T04:53:28.865Z,97.90
2018-10-12T04:55:57.562Z,98.00
2018-10-12T04:58:26.456Z,97.80
2018-10-12T05:00:54.928Z,97.80
2018-10-12T05:03:23.353Z,97.70
2018-10-12T05:05:52.144Z,97.80
2018-10-12T05:08:20.619Z,98.00
2018-10-12T05:10:49.085Z,97.90
2018-10-12T05:13:17.494Z,98.00
2018-10-12T05:15:45.920Z,98.00
2018-10-12T05:18:14.368Z,98.10
2018-10-12T05:20:43.100Z,98.30
2018-10-12T05:23:11.515Z,98.20
2018-10-12T05:25:39.986Z,98.30
2018-10-12T05:28:08.885Z,98.20
2018-10-12T05:30:37.538Z,98.20
2018-10-12T05:33:06.127Z,98.30
2018-10-12T05:35:34.581Z,98.50
2018-10-12T05:38:03.265Z,98.80
2018-10-12T05:40:32.205Z,98.70
2018-10-12T05:43:01.472Z,98.60
2018-10-12T05:45:30.055Z,98.50
2018-10-12T05:48:09.739Z,98.30
2018-10-12T05:50:38.225Z,98.70
2018-10-12T05:53:07.009Z,98.60
2018-10-12T05:55:36.213Z,98.80
2018-10-12T05:58:04.945Z,98.80
2018-10-12T06:00:33.665Z,98.80
2018-10-12T06:03:02.143Z,98.80
2018-10-12T06:05:30.900Z,98.70
2018-10-12T06:07:59.825Z,98.70
2018-10-12T06:10:28.198Z,98.60
2018-10-12T06:12:56.966Z,98.50
2018-10-12T06:15:26.321Z,98.50
2018-10-12T06:17:55.005Z,98.50
2018-10-12T06:20:23.700Z,98.50
2018-10-12T06:22:52.677Z,98.40
2018-10-12T06:25:21.124Z,98.40
2018-10-12T06:27:49.606Z,98.40
2018-10-12T06:30:18.025Z,98.40
2018-10-12T06:32:46.580Z,98.90
2018-10-12T06:35:15.246Z,98.90
2018-10-12T06:37:44.250Z,98.90
2018-10-12T06:40:12.705Z,99.10
2018-10-12T06:42:41.512Z,99.10
2018-10-12T06:45:10.003Z,99.50
2018-10-12T06:47:38.743Z,99.30
2018-10-12T06:50:07.324Z,99.20
2018-10-12T06:52:35.942Z,99.10
2018-10-12T06:55:04.471Z,99.30
2018-10-12T06:57:32.920Z,99.40
2018-10-12T07:00:01.471Z,99.20
2018-10-12T07:02:30.806Z,99.10
2018-10-12T07:04:59.334Z,99.00
2018-10-12T07:07:28.051Z,98.80
2018-10-12T07:09:56.631Z,98.80
2018-10-12T07:12:25.165Z,99.00
2018-10-12T07:14:53.702Z,98.90
2018-10-12T07:17:22.099Z,98.90
2018-10-12T07:19:50.463Z,98.90
2018-10-12T07:22:18.945Z,99.20
2018-10-12T07:24:47.453Z,99.00
2018-10-12T07:27:15.885Z,99.00
2018-10-12T07:29:44.382Z,99.00
2018-10-12T07:32:13.125Z,99.00
2018-10-12T07:34:41.583Z,99.10
2018-10-12T07:37:10.227Z,99.10
2018-10-12T07:39:38.926Z,99.20
2018-10-12T07:42:07.886Z,99.10
2018-10-12T07:44:36.967Z,99.20
2018-10-12T07:47:05.520Z,99.10
2018-10-12T07:49:34.200Z,99.10
2018-10-12T07:52:02.663Z,99.20
2018-10-12T07:54:31.105Z,99.20
2018-10-12T07:57:04.761Z,99.10
2018-10-12T07:59:33.201Z,99.20
2018-10-12T08:02:02.030Z,99.30
2018-10-12T08:04:30.553Z,99.30
2018-10-12T08:06:58.981Z,99.20
2018-10-12T08:09:27.481Z,98.90
2018-10-12T08:11:55.969Z,98.80
2018-10-12T08:14:24.459Z,98.80
2018-10-12T08:16:52.947Z,98.60
2018-10-12T08:19:21.521Z,98.80
2018-10-12T08:21:50.018Z,98.50
2018-10-12T08:24:18.442Z,98.70
2018-10-12T08:26:47.197Z,98.80
2018-10-12T08:29:15.583Z,98.60
2018-10-12T08:31:44.331Z,98.30
2018-10-12T08:34:12.771Z,98.60
2018-10-12T08:36:41.229Z,98.30
2018-10-12T08:39:11.546Z,98.20
2018-10-12T08:41:40.580Z,97.80
2018-10-12T08:44:09.041Z,97.80
2018-10-12T08:46:37.509Z,97.90
2018-10-12T08:49:06.298Z,97.30
2018-10-12T08:51:35.345Z,97.90
2018-10-12T08:54:03.936Z,97.20
2018-10-12T08:56:32.362Z,96.80
2018-10-12T08:59:01.230Z,97.50
2018-10-12T09:01:29.727Z,97.40
2018-10-12T09:03:58.625Z,97.60
2018-10-12T09:06:26.999Z,98.10
2018-10-12T09:08:55.481Z,97.30
2018-10-12T09:11:23.963Z,97.00
2018-10-12T09:13:52.620Z,97.50
2018-10-12T09:16:21.172Z,97.40
2018-10-12T09:18:49.603Z,97.60
2018-10-12T09:21:18.302Z,97.50
2018-10-12T09:23:47.150Z,97.60
2018-10-12T09:26:15.624Z,98.10
2018-10-12T09:28:44.423Z,98.00
2018-10-12T09:31:12.959Z,98.20
2018-10-12T09:33:41.408Z,98.10
2018-10-12T09:36:09.854Z,98.20
2018-10-12T09:38:38.332Z,97.60
2018-10-12T09:41:06.940Z,97.70
2018-10-12T09:43:35.373Z,97.80
2018-10-12T09:46:03.782Z,98.00
2018-10-12T09:48:32.228Z,97.50
2018-10-12T09:51:00.745Z,97.60
2018-10-12T09:53:29.260Z,97.40
2018-10-12T09:55:57.799Z,97.40
2018-10-12T09:58:26.281Z,96.10
2018-10-12T10:00:59.941Z,96.60
2018-10-12T10:03:33.493Z,96.20
2018-10-12T10:06:02.418Z,96.50
2018-10-12T10:08:30.956Z,96.00
2018-10-12T10:10:59.595Z,96.20
2018-10-12T10:13:28.105Z,96.10
2018-10-12T10:15:56.873Z,95.90
2018-10-12T10:18:25.413Z,96.20
2018-10-12T10:20:53.914Z,96.40
2018-10-12T10:23:22.650Z,96.20
2018-10-12T10:25:51.205Z,95.60
2018-10-12T10:28:20.201Z,95.10
2018-10-12T10:30:48.856Z,95.40
2018-10-12T10:33:17.509Z,95.10
2018-10-12T10:35:46.374Z,95.20
2018-10-12T10:38:14.813Z,95.00
2018-10-12T10:40:43.226Z,94.60
2018-10-12T10:43:11.733Z,94.90
2018-10-12T10:45:40.458Z,94.20
2018-10-12T10:48:08.930Z,94.20
2018-10-12T10:50:38.260Z,94.20
2018-10-12T10:53:06.866Z,94.10
2018-10-12T10:55:35.457Z,94.70
2018-10-12T10:58:04.270Z,94.40
2018-10-12T11:00:32.789Z,93.80
2018-10-12T11:03:01.334Z,93.30
2018-10-12T11:05:29.893Z,93.40
2018-10-12T11:07:58.619Z,93.00
2018-10-12T11:10:27.201Z,93.00
2018-10-12T11:12:55.785Z,93.40
2018-10-12T11:15:24.577Z,93.30
2018-10-12T11:17:53.692Z,92.80
2018-10-12T11:20:22.118Z,92.00
2018-10-12T11:22:50.718Z,92.80
2018-10-12T11:25:19.185Z,93.10
2018-10-12T11:27:47.725Z,92.50
2018-10-12T11:30:16.197Z,92.70
2018-10-12T11:32:44.902Z,92.20
2018-10-12T11:35:13.268Z,92.40
2018-10-12T11:37:41.811Z,92.50
2018-10-12T11:40:10.493Z,90.80
2018-10-12T11:42:49.998Z,90.20
2018-10-12T11:45:18.731Z,91.10
2018-10-12T11:47:47.470Z,91.60
2018-10-12T11:50:16.190Z,91.30
2018-10-12T11:52:44.581Z,90.70
2018-10-12T11:55:13.068Z,90.60
2018-10-12T11:57:41.751Z,90.70
2018-10-12T12:00:10.231Z,90.60
2018-10-12T12:02:38.867Z,90.50
2018-10-12T12:05:07.729Z,90.20
2018-10-12T12:07:36.264Z,90.30
2018-10-12T12:10:04.950Z,87.70
2018-10-12T12:12:33.457Z,90.30
2018-10-12T12:15:02.537Z,89.90
2018-10-12T12:17:31.018Z,89.50
2018-10-12T12:19:59.400Z,89.40
2018-10-12T12:22:28.148Z,89.90
2018-10-12T12:24:56.590Z,86.30
2018-10-12T12:27:25.101Z,88.80
2018-10-12T12:29:53.530Z,85.10
2018-10-12T12:32:21.960Z,85.10
2018-10-12T12:34:50.512Z,86.90
2018-10-12T12:37:18.828Z,87.20
2018-10-12T12:39:47.201Z,85.80
2018-10-12T12:42:15.677Z,85.70
2018-10-12T12:44:44.307Z,85.70
2018-10-12T12:47:13.210Z,84.50
2018-10-12T12:49:41.846Z,85.00
2018-10-12T12:52:10.284Z,83.90
2018-10-12T12:54:39.570Z,85.40
2018-10-12T12:57:08.421Z,86.40
2018-10-12T12:59:36.923Z,86.60
2018-10-12T13:02:05.618Z,85.80
2018-10-12T13:04:34.192Z,82.40
2018-10-12T13:07:02.593Z,84.10
2018-10-12T13:09:31.291Z,82.70
2018-10-12T13:11:59.720Z,81.20
2018-10-12T13:14:28.846Z,83.40
2018-10-12T13:16:57.469Z,79.90
2018-10-12T13:19:26.277Z,81.40
2018-10-12T13:21:54.652Z,80.50
2018-10-12T13:24:23.008Z,81.10
2018-10-12T13:26:51.547Z,79.50
2018-10-12T13:29:19.904Z,81.40
2018-10-12T13:31:48.705Z,82.00
2018-10-12T13:34:17.129Z,83.20
2018-10-12T13:36:45.572Z,82.00
2018-10-12T13:39:14.501Z,81.40
2018-10-12T13:41:43.132Z,82.40
2018-10-12T13:44:11.798Z,81.90
2018-10-12T13:46:40.219Z,78.30
2018-10-12T13:49:08.836Z,79.70
2018-10-12T13:51:37.181Z,80.20
2018-10-12T13:54:06.022Z,80.20
2018-10-12T13:56:34.479Z,78.20
2018-10-12T13:59:02.836Z,80.30
2018-10-12T14:01:31.280Z,78.30
2018-10-12T14:03:59.950Z,78.80
2018-10-12T14:06:29.714Z,80.50
2018-10-12T14:08:58.591Z,80.20
2018-10-12T14:11:27.029Z,80.00
2018-10-12T14:13:55.360Z,78.50
2018-10-12T14:16:24.017Z,79.80
2018-10-12T14:18:52.787Z,80.90
2018-10-12T14:21:21.305Z,81.30
2018-10-12T14:23:49.754Z,80.60
2018-10-12T14:26:18.183Z,81.10
2018-10-12T14:28:47.062Z,82.00
2018-10-12T14:31:15.520Z,82.50
2018-10-12T14:33:43.921Z,81.80
2018-10-12T14:36:12.458Z,82.30
2018-10-12T14:38:41.185Z,84.10
2018-10-12T14:41:10.081Z,82.90
2018-10-12T14:43:38.814Z,83.40
2018-10-12T14:46:07.288Z,83.80
2018-10-12T14:48:35.818Z,83.90
2018-10-12T14:51:04.222Z,84.30
2018-10-12T14:53:32.735Z,83.90
2018-10-12T14:56:01.030Z,83.70
2018-10-12T14:58:29.536Z,84.70
2018-10-12T15:00:58.458Z,84.10
2018-10-12T15:03:27.257Z,84.10
2018-10-12T15:05:55.925Z,85.50
2018-10-12T15:08:24.544Z,85.00
2018-10-12T15:10:53.058Z,84.90
2018-10-12T15:13:21.424Z,85.30
2018-10-12T15:15:49.765Z,85.20
2018-10-12T15:18:18.216Z,85.90
2018-10-12T15:20:46.669Z,86.20
2018-10-12T15:23:15.146Z,86.40
2018-10-12T15:25:43.592Z,85.90
2018-10-12T15:28:12.025Z,88.80
2018-10-12T15:30:40.815Z,86.70
2018-10-12T15:33:09.524Z,87.90
2018-10-12T15:35:38.260Z,88.50
2018-10-12T15:38:06.772Z,89.20
2018-10-12T15:40:35.291Z,88.40
2018-10-12T15:43:03.720Z,88.20
2018-10-12T15:45:32.181Z,89.50
2018-10-12T15:48:00.615Z,88.40
2018-10-12T15:50:29.149Z,89.00
2018-10-12T15:52:57.959Z,89.30
2018-10-12T15:55:26.545Z,89.80
2018-10-12T15:57:55.210Z,89.80
2018-10-12T16:00:24.055Z,89.80
2018-10-12T16:02:52.633Z,90.00
2018-10-12T16:05:21.413Z,90.10
2018-10-12T16:07:50.367Z,90.20
2018-10-12T16:10:18.769Z,90.10
2018-10-12T16:12:47.249Z,89.80
2018-10-12T16:15:16.253Z,90.00
2018-10-12T16:17:44.908Z,90.20
2018-10-12T16:20:13.511Z,90.20
2018-10-12T16:22:42.427Z,90.20
2018-10-12T16:25:22.066Z,90.10
2018-10-12T16:27:51.041Z,90.40
2018-10-12T16:30:19.714Z,90.60
2018-10-12T16:32:48.149Z,90.40
2018-10-12T16:35:16.990Z,90.60
2018-10-12T16:37:45.933Z,90.50
2018-10-12T16:40:14.850Z,90.50
2018-10-12T16:42:43.244Z,90.90
2018-10-12T16:45:11.919Z,91.00
2018-10-12T16:47:40.406Z,91.20
2018-10-12T16:50:08.846Z,91.40
2018-10-12T16:52:37.469Z,91.40
2018-10-12T16:55:05.973Z,91.30
2018-10-12T16:57:35.978Z,91.40
2018-10-12T17:00:05.349Z,91.60
2018-10-12T17:02:33.874Z,91.80
2018-10-12T17:05:02.403Z,91.90
2018-10-12T17:07:31.094Z,91.90
2018-10-12T17:09:59.460Z,92.70
2018-10-12T17:12:29.202Z,92.00
2018-10-12T17:14:57.803Z,92.00
2018-10-12T17:17:26.485Z,92.10
2018-10-12T17:19:55.096Z,92.20
2018-10-12T17:22:23.580Z,92.30
2018-10-12T17:24:52.080Z,92.40
2018-10-12T17:27:20.580Z,92.50
2018-10-12T17:29:49.616Z,92.60
2018-10-12T17:32:18.054Z,92.70
2018-10-12T17:34:46.682Z,92.70
2018-10-12T17:37:15.124Z,92.80
2018-10-12T17:39:43.744Z,93.00
2018-10-12T17:42:15.506Z,93.00
2018-10-12T17:44:44.437Z,93.10
2018-10-12T17:47:13.318Z,93.10
2018-10-12T17:49:41.748Z,93.20
2018-10-12T17:52:10.590Z,93.40
2018-10-12T17:54:39.138Z,93.30
2018-10-12T17:57:07.886Z,93.30
2018-10-12T17:59:36.277Z,93.40
2018-10-12T18:02:04.788Z,93.90
2018-10-12T18:04:33.740Z,93.60
2018-10-12T18:07:02.886Z,93.50
2018-10-12T18:09:31.748Z,93.50
2018-10-12T18:12:00.416Z,93.60
2018-10-12T18:14:29.034Z,93.50
2018-10-12T18:16:58.111Z,93.50
2018-10-12T18:19:26.743Z,93.50
2018-10-12T18:21:55.529Z,93.60
2018-10-12T18:24:24.034Z,93.60
2018-10-12T18:26:52.461Z,93.50
2018-10-12T18:29:20.918Z,93.60
2018-10-12T18:31:49.283Z,93.60
2018-10-12T18:34:18.077Z,93.70
2018-10-12T18:36:46.640Z,93.70
2018-10-12T18:39:14.990Z,93.70
2018-10-12T18:41:43.869Z,93.80
2018-10-12T18:44:12.362Z,93.90
2018-10-12T18:46:41.705Z,93.70
2018-10-12T18:49:10.222Z,93.70
2018-10-12T18:51:38.718Z,93.80
2018-10-12T18:54:07.233Z,93.80
2018-10-12T18:56:35.836Z,93.80
2018-10-12T18:59:04.684Z,93.90
2018-10-12T19:01:33.352Z,94.00
2018-10-12T19:04:01.931Z,93.80
2018-10-12T19:06:32.371Z,93.80
2018-10-12T19:09:00.817Z,93.80
2018-10-12T19:11:29.408Z,93.90
2018-10-12T19:13:57.884Z,93.90
2018-10-12T19:16:26.963Z,93.90
2018-10-12T19:18:55.566Z,94.00
2018-10-12T19:21:24.841Z,93.90
2018-10-12T19:23:53.695Z,94.00
2018-10-12T19:26:22.192Z,93.90
2018-10-12T19:28:50.800Z,94.00
2018-10-12T19:31:19.405Z,93.90
2018-10-12T19:33:47.995Z,93.90
2018-10-12T19:36:16.598Z,93.80
2018-10-12T19:38:45.115Z,93.70
2018-10-12T19:41:13.765Z,93.80
2018-10-12T19:43:42.431Z,93.80
2018-10-12T19:46:11.261Z,93.80
2018-10-12T19:48:39.777Z,93.80
2018-10-12T19:51:08.286Z,93.80
2018-10-12T19:53:36.929Z,93.80
2018-10-12T19:56:05.800Z,93.70
2018-10-12T19:58:34.310Z,94.00
2018-10-12T20:01:02.845Z,94.00
2018-10-12T20:03:31.429Z,93.80
2018-10-12T20:06:00.014Z,93.80
2018-10-12T20:08:28.626Z,93.70
2018-10-12T20:10:57.169Z,93.70
2018-10-12T20:13:25.735Z,93.70
2018-10-12T20:15:54.281Z,93.80
2018-10-12T20:18:22.894Z,93.80
2018-10-12T20:20:51.527Z,93.70
2018-10-12T20:23:20.091Z,93.70
2018-10-12T20:25:48.655Z,93.80
2018-10-12T20:28:17.103Z,93.60
2018-10-12T20:30:45.563Z,93.40
2018-10-12T20:33:14.164Z,93.20
2018-10-12T20:35:42.680Z,93.30
2018-10-12T20:38:11.062Z,93.30
2018-10-12T20:40:39.540Z,93.10
2018-10-12T20:43:08.078Z,93.20
2018-10-12T20:45:36.596Z,93.10
2018-10-12T20:48:05.028Z,93.10
2018-10-12T20:50:34.302Z,93.20
2018-10-12T20:53:02.814Z,92.80
2018-10-12T20:55:31.237Z,92.70
2018-10-12T20:58:00.005Z,92.80
2018-10-12T21:00:28.832Z,92.90
2018-10-12T21:02:57.321Z,92.50
2018-10-12T21:05:26.205Z,92.60
2018-10-12T21:07:54.557Z,92.50
2018-10-12T21:10:22.949Z,92.90
2018-10-12T21:12:51.442Z,92.30
2018-10-12T21:15:19.890Z,92.50
2018-10-12T21:17:48.582Z,92.50
2018-10-12T21:20:17.383Z,92.50
2018-10-12T21:22:45.870Z,92.70
2018-10-12T21:25:14.767Z,92.80
2018-10-12T21:27:43.214Z,92.70
2018-10-12T21:30:11.664Z,93.10
2018-10-12T21:32:40.069Z,93.00
2018-10-12T21:35:08.973Z,93.00
2018-10-12T21:37:37.393Z,93.00
2018-10-12T21:40:05.930Z,92.90
2018-10-12T21:42:34.597Z,93.00
2018-10-12T21:45:03.267Z,92.90
2018-10-12T21:47:31.726Z,93.10
2018-10-12T21:50:00.369Z,93.10
2018-10-12T21:52:28.882Z,93.10
2018-10-12T21:54:57.257Z,93.30
2018-10-12T21:57:25.964Z,93.30
2018-10-12T21:59:55.005Z,93.10
2018-10-12T22:02:23.418Z,93.10
2018-10-12T22:04:52.041Z,92.90
2018-10-12T22:07:20.912Z,93.10
2018-10-12T22:09:49.582Z,92.90
2018-10-12T22:12:18.388Z,92.90
2018-10-12T22:14:47.158Z,93.00
2018-10-12T22:17:16.275Z,92.90
2018-10-12T22:19:44.987Z,93.10
2018-10-12T22:22:13.714Z,92.90
2018-10-12T22:24:42.258Z,93.00
2018-10-12T22:27:10.766Z,92.90
2018-10-12T22:29:39.486Z,92.90
2018-10-12T22:32:08.135Z,92.90
2018-10-12T22:34:36.722Z,93.10
2018-10-12T22:37:05.797Z,93.10
2018-10-12T22:39:34.482Z,93.10
2018-10-12T22:42:02.917Z,93.10
2018-10-12T22:44:31.379Z,93.00
2018-10-12T22:47:00.134Z,93.00
2018-10-12T22:49:28.803Z,93.20
2018-10-12T22:51:57.234Z,93.20
2018-10-12T22:54:25.664Z,93.30
2018-10-12T22:56:54.082Z,93.20
2018-10-12T22:59:22.622Z,93.30
2018-10-12T23:01:51.185Z,93.20
2018-10-12T23:04:20.001Z,93.40
2018-10-12T23:06:48.658Z,93.40
2018-10-12T23:09:17.069Z,93.40
2018-10-12T23:11:45.715Z,93.50
2018-10-12T23:14:14.386Z,93.40
2018-10-12T23:16:42.768Z,93.50
2018-10-12T23:19:11.562Z,93.60
2018-10-12T23:21:40.033Z,93.70
2018-10-12T23:24:08.402Z,93.70
2018-10-12T23:26:36.857Z,93.70
2018-10-12T23:29:05.480Z,93.70
2018-10-12T23:31:34.160Z,94.20
2018-10-12T23:34:05.768Z,93.80
2018-10-12T23:36:34.896Z,93.90
2018-10-12T23:39:04.856Z,93.80
2018-10-12T23:41:33.471Z,93.70
2018-10-12T23:44:01.851Z,93.70
2018-10-12T23:46:30.248Z,93.80
2018-10-12T23:48:58.622Z,93.70
2018-10-12T23:51:27.032Z,93.70
2018-10-12T23:53:55.523Z,93.90
2018-10-12T23:56:23.922Z,93.70
2018-10-12T23:58:52.285Z,93.70
